Time;durP1;ratioP1;P1;durP2;ratioP2;P2;SDS_P1;SDS_P2;PMS_P1;PMS_P2;Temp;Humidity;BMP_temperature;BMP_pressure;BME280_temperature;BME280_humidity;BME280_pressure;Samples;Min_cycle;Max_cycle;Signal;HPM_P1;HPM_P2
2022/02/03 01:44:55;;;;;;;3.80;1.08;;;;;;;12.66;60.01;100734.16;5014899;28;20034;-96
2022/02/03 07:35:34;;;;;;;2.22;1.33;;;;;;;11.64;67.92;100456.22;1926787;22;20239;-96
2022/02/03 07:40:35;;;;;;;2.83;1.27;;;;;;;11.66;67.36;100468.31;5960669;22;21248;-95
2022/02/03 07:43:05;;;;;;;2.22;1.08;;;;;;;11.42;67.40;100430.63;5182299;23;20013;-96
2022/02/03 07:45:36;;;;;;;3.88;2.83;;;;;;;11.39;67.78;100436.09;6039851;22;20084;-96
2022/02/03 07:55:39;;;;;;;5.35;1.50;;;;;;;11.54;67.93;100466.56;4958999;28;20051;-95
2022/02/03 07:58:05;;;;;;;1.27;1.10;;;;;;;11.50;68.46;100468.56;4974283;28;20027;-96
2022/02/03 08:00:30;;;;;;;1.58;1.10;;;;;;;11.57;68.12;100470.75;4975104;28;20528;-96
2022/02/03 08:02:56;;;;;;;2.45;1.40;;;;;;;11.56;68.43;100474.34;4974461;28;20072;-94
2022/02/03 08:05:22;;;;;;;3.15;1.23;;;;;;;11.68;68.16;100482.19;4974489;28;20023;-96
2022/02/03 08:13:05;;;;;;;2.35;1.17;;;;;;;11.65;67.95;100466.66;5098462;23;20121;-96
2022/02/03 08:15:38;;;;;;;1.77;1.42;;;;;;;11.81;67.75;100490.06;5509676;23;20258;-96
2022/02/03 08:36:12;;;;;;;2.50;1.10;;;;;;;12.14;67.67;100454.38;5828854;23;20059;-94
2022/02/03 08:41:09;;;;;;;1.10;0.95;;;;;;;12.10;66.94;100430.09;5013233;28;20046;-96
2022/02/03 08:43:40;;;;;;;1.27;0.80;;;;;;;12.11;67.12;100438.81;4999127;28;20053;-96
2022/02/03 08:46:09;;;;;;;2.80;1.00;;;;;;;12.08;67.01;100428.50;4997581;28;20058;-96
2022/02/03 08:48:35;;;;;;;2.97;0.88;;;;;;;12.04;66.68;100429.69;5006583;28;20022;-96
2022/02/03 08:51:04;;;;;;;1.58;0.88;;;;;;;12.04;67.33;100432.31;4996202;28;20071;-96
2022/02/03 08:53:38;;;;;;;1.77;0.98;;;;;;;12.02;67.28;100429.78;5012458;28;20023;-96
2022/02/03 08:59:11;;;;;;;1.58;0.98;;;;;;;12.05;67.70;100418.22;4997263;28;20054;-96
2022/02/03 09:58:12;;;;;;;3.33;1.98;;;;;;;13.14;66.60;100411.72;5000656;28;20027;-96
2022/02/03 10:00:52;;;;;;;1.92;1.10;;;;;;;13.25;66.90;100406.41;5000589;28;20018;-96
2022/02/03 10:03:31;;;;;;;3.30;1.40;;;;;;;13.26;67.17;100410.72;4996646;28;20034;-96
2022/02/03 10:08:35;;;;;;;3.63;1.10;;;;;;;13.46;65.94;100407.38;5001921;28;20031;-96
2022/02/03 10:11:17;;;;;;;2.58;1.23;;;;;;;13.59;64.92;100411.69;5000778;28;20031;-96
2022/02/03 10:13:47;;;;;;;1.52;1.27;;;;;;;13.67;65.98;100411.91;4995491;28;20027;-96
2022/02/03 10:16:14;;;;;;;5.78;1.83;;;;;;;13.73;65.49;100429.03;4991660;28;20037;-96
2022/02/03 10:18:41;;;;;;;3.83;1.52;;;;;;;13.73;65.10;100416.66;4991379;28;20019;-96
2022/02/03 10:21:11;;;;;;;2.20;2.00;;;;;;;13.77;65.11;100419.91;4991973;28;20087;-96
2022/02/03 10:23:52;;;;;;;2.63;1.92;;;;;;;14.11;64.87;100423.25;5007187;28;20034;-96
2022/02/03 10:26:18;;;;;;;2.50;1.75;;;;;;;14.14;64.91;100401.03;5008166;28;20038;-96
2022/02/03 10:28:55;;;;;;;4.43;1.70;;;;;;;14.06;64.72;100405.16;5001013;28;20099;-96
2022/02/03 10:31:24;;;;;;;3.15;1.20;;;;;;;14.33;64.41;100416.19;4992253;28;20033;-95
2022/02/03 10:34:01;;;;;;;2.75;0.93;;;;;;;14.26;63.40;100423.78;4993666;28;20628;-96
2022/02/03 10:36:48;;;;;;;2.78;1.30;;;;;;;14.01;64.26;100417.06;4993377;28;20102;-95
2022/02/03 10:42:25;;;;;;;3.55;1.33;;;;;;;13.97;64.04;100415.63;4990981;28;20062;-96
2022/02/03 10:58:17;;;;;;;2.13;1.25;;;;;;;13.94;63.96;100415.88;4993186;28;20034;-96
2022/02/03 11:01:02;;;;;;;3.67;1.38;;;;;;;14.02;64.27;100434.56;4973053;28;20029;-96
2022/02/03 11:06:18;;;;;;;6.82;1.58;;;;;;;14.08;64.50;100429.63;4991381;28;20015;-96
2022/02/03 11:08:54;;;;;;;3.28;1.75;;;;;;;13.78;64.94;100398.66;5000473;28;20011;-96
2022/02/03 11:11:24;;;;;;;4.18;1.85;;;;;;;13.81;64.97;100398.41;4996834;28;20035;-96
2022/02/03 11:13:51;;;;;;;5.97;1.88;;;;;;;13.93;64.74;100406.28;4995405;28;20027;-96
2022/02/03 11:16:18;;;;;;;2.42;1.20;;;;;;;14.06;64.56;100393.78;4993398;28;20058;-96
2022/02/03 11:18:46;;;;;;;3.58;1.48;;;;;;;14.27;64.06;100423.66;4993343;28;20031;-96
2022/02/03 11:21:14;;;;;;;4.15;1.02;;;;;;;13.76;64.72;100392.66;4993308;28;20075;-96
2022/02/03 11:23:48;;;;;;;2.05;0.90;;;;;;;14.03;63.86;100404.56;4993574;28;20023;-96
2022/02/03 11:26:29;;;;;;;3.30;1.13;;;;;;;14.10;63.25;100400.47;4992691;28;20023;-96
2022/02/03 11:40:24;;;;;;;2.50;0.80;;;;;;;14.47;63.49;100413.22;4994807;28;20043;-96
2022/02/03 11:48:55;;;;;;;4.85;1.75;;;;;;;14.82;63.64;100378.53;4975555;28;20106;-96
2022/02/03 11:54:48;;;;;;;5.13;0.98;;;;;;;15.06;62.47;100396.72;5000343;28;20023;-96
2022/02/03 12:02:54;;;;;;;4.95;1.10;;;;;;;14.98;62.10;100388.63;4981373;28;20015;-96
2022/02/03 12:11:19;;;;;;;4.15;1.23;;;;;;;15.05;61.03;100376.56;4994771;28;20035;-96
2022/02/03 12:16:34;;;;;;;3.30;1.27;;;;;;;14.99;61.68;100386.84;5017893;28;20022;-96
2022/02/03 12:29:33;;;;;;;5.15;1.48;;;;;;;14.62;61.64;100351.19;5377679;23;20034;-96
2022/02/03 12:37:51;;;;;;;2.70;0.93;;;;;;;14.96;61.38;100347.44;5015857;28;20025;-96
2022/02/03 12:45:41;;;;;;;5.88;1.38;;;;;;;15.06;61.15;100346.47;5018923;28;20038;-96
2022/02/03 12:48:07;;;;;;;3.85;1.20;;;;;;;15.01;61.09;100364.56;5014195;28;20014;-96
2022/02/03 12:50:38;;;;;;;3.17;1.00;;;;;;;15.01;61.57;100361.09;5006587;28;20037;-96
2022/02/03 12:53:05;;;;;;;7.45;1.10;;;;;;;14.91;61.52;100352.28;4975455;28;20031;-96
2022/02/03 12:55:40;;;;;;;5.75;1.13;;;;;;;14.96;61.65;100348.25;4996438;28;20101;-96
2022/02/03 12:58:15;;;;;;;5.93;0.98;;;;;;;14.88;61.76;100353.38;4989354;28;20023;-95
2022/02/03 13:00:55;;;;;;;9.13;0.95;;;;;;;14.98;62.08;100348.13;4989610;28;20027;-96
2022/02/03 13:03:29;;;;;;;10.85;1.85;;;;;;;14.98;61.67;100351.59;5004365;28;20039;-96
2022/02/03 13:06:02;;;;;;;5.30;1.08;;;;;;;14.92;62.19;100338.91;5008557;28;20089;-96
2022/02/03 13:08:50;;;;;;;7.38;1.48;;;;;;;14.77;62.91;100340.25;5000388;28;20022;-96
2022/02/03 13:14:40;;;;;;;6.18;1.20;;;;;;;14.83;63.05;100329.16;4992332;28;20038;-96
2022/02/03 13:17:17;;;;;;;6.40;1.15;;;;;;;14.96;63.48;100342.13;5004165;28;20033;-96
2022/02/03 13:22:46;;;;;;;3.22;1.05;;;;;;;14.84;63.87;100314.97;5162470;23;20049;-96
2022/02/03 13:28:11;;;;;;;4.47;0.70;;;;;;;14.98;63.67;100305.81;5365573;22;20061;-96
2022/02/03 13:30:53;;;;;;;11.50;2.75;;;;;;;14.60;64.18;100302.91;5011972;28;20443;-96
2022/02/03 13:33:30;;;;;;;3.40;0.77;;;;;;;14.64;64.64;100336.03;5004642;28;20027;-96
2022/02/03 13:36:03;;;;;;;2.38;0.60;;;;;;;14.38;64.34;100313.63;5021238;28;20042;-95
2022/02/03 13:41:12;;;;;;;3.83;0.60;;;;;;;14.59;65.36;100319.75;4996703;28;20030;-96
2022/02/03 13:43:40;;;;;;;3.30;0.50;;;;;;;14.68;65.37;100311.00;4991166;28;20125;-95
2022/02/03 13:46:07;;;;;;;2.10;0.60;;;;;;;14.95;64.82;100311.38;5007149;28;20093;-96
2022/02/03 13:48:33;;;;;;;2.05;0.50;;;;;;;14.95;64.56;100299.00;5014574;28;20022;-95
2022/02/03 13:51:01;;;;;;;2.55;0.47;;;;;;;14.93;63.86;100290.38;4997152;28;20388;-96
2022/02/03 13:53:42;;;;;;;0.65;0.43;;;;;;;14.76;64.00;100298.94;5001280;28;20042;-96
2022/02/03 14:28:15;;;;;;;1.80;0.50;;;;;;;15.74;60.75;100292.84;4992146;28;20506;-96
2022/02/03 14:30:45;;;;;;;3.58;0.77;;;;;;;15.61;60.59;100308.97;5000353;28;20125;-96
2022/02/03 14:33:11;;;;;;;1.33;0.55;;;;;;;15.58;60.82;100297.81;5006448;28;20034;-96
2022/02/03 14:35:38;;;;;;;4.53;0.70;;;;;;;15.37;61.03;100295.31;5002799;28;20420;-96
2022/02/03 14:38:15;;;;;;;4.40;0.60;;;;;;;15.15;61.34;100289.31;4999101;28;20374;-95
2022/02/03 14:40:55;;;;;;;2.33;0.80;;;;;;;15.33;61.39;100288.63;5011492;28;20037;-96
2022/02/03 14:43:20;;;;;;;1.88;0.50;;;;;;;15.31;61.58;100282.66;5002069;28;20011;-96
2022/02/03 14:45:46;;;;;;;2.05;0.55;;;;;;;15.25;61.53;100276.94;5003909;28;20090;-96
2022/02/03 14:48:14;;;;;;;2.60;0.50;;;;;;;15.15;61.86;100283.19;5000126;28;20035;-96
2022/02/03 14:50:40;;;;;;;4.60;0.60;;;;;;;15.18;61.90;100275.78;5003177;28;20038;-94
2022/02/03 14:53:18;;;;;;;2.20;0.30;;;;;;;15.30;61.35;100284.44;5003814;28;20038;-96
2022/02/03 16:52:39;;;;;;;4.65;1.00;;;;;;;14.20;60.20;100237.66;4995692;28;20049;-96
2022/02/03 16:55:09;;;;;;;2.88;0.70;;;;;;;14.23;60.09;100242.66;4998417;28;20396;-96
2022/02/03 16:57:34;;;;;;;3.67;0.70;;;;;;;14.01;60.03;100240.19;5005443;28;20014;-96
2022/02/03 17:00:13;;;;;;;5.10;1.00;;;;;;;14.13;60.28;100236.50;5008253;28;20040;-96
2022/02/03 17:02:39;;;;;;;5.65;0.95;;;;;;;13.94;60.34;100226.69;5011219;28;20055;-96
2022/02/03 17:05:06;;;;;;;6.25;1.27;;;;;;;14.09;60.13;100235.91;5004819;28;20022;-93
2022/02/03 17:07:31;;;;;;;7.47;0.93;;;;;;;13.71;61.00;100235.72;4993873;28;20053;-94
2022/02/03 17:09:57;;;;;;;3.38;0.70;;;;;;;13.94;60.36;100236.38;4993907;28;20034;-96
2022/02/03 17:12:24;;;;;;;5.65;1.48;;;;;;;14.04;60.14;100243.41;5000136;28;20319;-96
2022/02/03 17:14:52;;;;;;;5.53;1.00;;;;;;;13.97;60.29;100236.13;5000229;28;20044;-95
2022/02/03 17:17:35;;;;;;;6.82;0.80;;;;;;;14.08;59.78;100242.19;4993985;28;20037;-94
2022/02/03 17:20:02;;;;;;;7.60;1.00;;;;;;;14.17;59.94;100242.34;4992063;28;20022;-94
2022/02/03 17:22:32;;;;;;;3.45;1.02;;;;;;;14.18;59.65;100250.16;4992090;28;20030;-94
2022/02/03 17:27:34;;;;;;;5.60;0.80;;;;;;;14.19;59.26;100235.13;4994318;28;20351;-95
2022/02/03 17:30:05;;;;;;;2.00;1.13;;;;;;;14.12;59.48;100240.13;4994637;28;20034;-96
2022/02/03 20:35:19;;;;;;;3.22;1.05;;;;;;;13.36;60.21;100116.34;5910767;22;20088;-96
2022/02/03 20:37:45;;;;;;;1.95;1.10;;;;;;;13.18;60.85;100107.31;5009753;28;20038;-96
2022/02/03 20:40:12;;;;;;;3.63;1.17;;;;;;;13.09;61.04;100116.81;4997163;28;20055;-96
2022/02/03 22:50:51;;;;;;;5.13;1.40;;;;;;;13.01;61.45;100059.50;5122461;22;20033;-96
2022/02/03 23:11:31;;;;;;;5.13;1.45;;;;;;;12.88;63.65;100032.50;5024875;28;20054;-96
2022/02/03 23:19:17;;;;;;;5.68;1.17;;;;;;;12.96;63.03;100029.22;5032570;28;20017;-95
2022/02/03 23:22:05;;;;;;;3.53;1.02;;;;;;;12.87;63.25;100020.28;5005156;28;20041;-95
2022/02/03 23:24:36;;;;;;;7.05;1.70;;;;;;;12.84;63.32;100012.63;5016946;28;20066;-96
2022/02/03 23:29:55;;;;;;;3.22;1.23;;;;;;;12.78;64.01;100031.59;5031575;22;20129;-96
2022/02/03 23:32:22;;;;;;;3.45;1.52;;;;;;;12.81;64.08;100011.06;5032251;28;20085;-96
2022/02/03 23:34:58;;;;;;;9.10;1.90;;;;;;;12.98;63.33;100009.69;5036088;28;20037;-96
2022/02/03 23:37:24;;;;;;;3.63;1.20;;;;;;;12.81;63.69;100015.53;5034338;28;20010;-95
